createdAt,value
2022-11-23T00:01:40.758Z,111.07
2022-11-23T00:04:08.500Z,107.80
2022-11-23T00:06:35.771Z,99.13
2022-11-23T00:09:02.945Z,93.27
2022-11-23T00:11:30.090Z,100.83
2022-11-23T00:13:57.336Z,95.87
2022-11-23T00:16:25.769Z,87.40
2022-11-23T00:18:53.590Z,79.50
2022-11-23T00:21:21.288Z,85.27
2022-11-23T00:23:48.526Z,120.63
2022-11-23T00:26:15.663Z,102.53
2022-11-23T00:28:42.836Z,96.10
2022-11-23T00:31:10.346Z,91.17
2022-11-23T00:33:37.844Z,72.97
2022-11-23T00:36:06.007Z,68.10
2022-11-23T00:38:33.172Z,61.53
2022-11-23T00:41:00.960Z,72.53
2022-11-23T00:43:28.483Z,83.20
2022-11-23T00:46:07.928Z,79.90
2022-11-23T00:48:35.079Z,85.47
2022-11-23T00:51:02.777Z,80.23
2022-11-23T00:53:29.970Z,89.07
2022-11-23T00:55:57.287Z,117.20
2022-11-23T00:58:24.663Z,111.90
2022-11-23T01:00:51.751Z,106.43
2022-11-23T01:03:18.911Z,108.27
2022-11-23T01:05:45.990Z,113.23
2022-11-23T01:08:13.068Z,106.40
2022-11-23T01:10:40.206Z,107.77
2022-11-23T01:13:07.316Z,110.50
2022-11-23T01:15:34.397Z,106.27
2022-11-23T01:18:01.533Z,103.43
2022-11-23T01:20:28.607Z,105.50
2022-11-23T01:22:55.718Z,114.33
2022-11-23T01:25:22.832Z,116.83
2022-11-23T01:27:49.918Z,104.80
2022-11-23T01:30:17.090Z,100.23
2022-11-23T01:32:44.489Z,104.27
2022-11-23T01:35:11.560Z,102.33
2022-11-23T01:37:38.651Z,91.00
2022-11-23T01:40:06.027Z,97.23
2022-11-23T01:42:48.386Z,88.17
2022-11-23T01:45:45.552Z,86.37
2022-11-23T01:48:22.637Z,90.47
2022-11-23T01:50:50.133Z,86.23
2022-11-23T01:53:17.213Z,95.97
2022-11-23T01:55:44.840Z,103.93
2022-11-23T01:58:12.038Z,98.93
2022-11-23T02:00:39.181Z,102.43
2022-11-23T02:03:06.496Z,95.60
2022-11-23T02:05:41.322Z,108.17
2022-11-23T02:08:08.671Z,119.20
2022-11-23T02:10:35.822Z,109.27
2022-11-23T02:13:06.314Z,95.70
2022-11-23T02:15:34.290Z,108.63
2022-11-23T02:18:01.831Z,107.27
2022-11-23T02:20:29.040Z,107.57
2022-11-23T02:23:04.932Z,111.80
2022-11-23T02:25:45.299Z,103.33
2022-11-23T02:28:32.646Z,95.67
2022-11-23T02:30:59.774Z,114.33
2022-11-23T02:33:26.871Z,124.73
2022-11-23T02:35:55.081Z,118.77
2022-11-23T02:38:22.530Z,96.97
2022-11-23T02:40:50.865Z,73.23
2022-11-23T02:46:02.818Z,90.60
2022-11-23T02:48:29.898Z,100.40
2022-11-23T02:50:56.969Z,136.30
2022-11-23T02:53:24.096Z,124.87
2022-11-23T02:55:51.182Z,88.90
2022-11-23T02:58:18.255Z,74.50
2022-11-23T03:00:45.463Z,101.70
2022-11-23T03:03:12.627Z,107.10
2022-11-23T03:05:39.761Z,112.17
2022-11-23T03:08:06.978Z,105.50
2022-11-23T03:10:34.062Z,103.20
2022-11-23T03:13:01.136Z,110.43
2022-11-23T03:15:28.683Z,107.63
2022-11-23T03:17:56.002Z,108.20
2022-11-23T03:20:23.103Z,97.23
2022-11-23T03:22:50.228Z,105.10
2022-11-23T03:25:17.377Z,96.13
2022-11-23T03:27:44.463Z,104.40
2022-11-23T03:30:11.664Z,111.40
2022-11-23T03:32:38.831Z,99.10
2022-11-23T03:35:06.149Z,100.73
2022-11-23T03:37:33.253Z,106.77
2022-11-23T03:40:00.322Z,105.27
2022-11-23T03:42:27.398Z,104.63
2022-11-23T03:44:54.525Z,100.93
2022-11-23T03:47:21.742Z,106.13
2022-11-23T03:49:48.973Z,104.27
2022-11-23T03:52:16.097Z,104.83
2022-11-23T03:54:43.208Z,103.10
2022-11-23T03:57:10.331Z,101.60
2022-11-23T03:59:37.464Z,108.83
2022-11-23T04:02:04.540Z,105.00
2022-11-23T04:04:31.612Z,108.80
2022-11-23T04:06:58.720Z,102.83
2022-11-23T04:09:25.797Z,107.33
2022-11-23T04:11:52.873Z,103.07
2022-11-23T04:14:20.012Z,103.23
2022-11-23T04:16:47.092Z,110.63
2022-11-23T04:19:14.173Z,121.63
2022-11-23T04:21:41.306Z,113.50
2022-11-23T04:24:08.482Z,106.73
2022-11-23T04:26:35.557Z,101.27
2022-11-23T04:29:02.693Z,112.70
2022-11-23T04:31:29.761Z,117.90
2022-11-23T04:33:57.271Z,123.93
2022-11-23T04:36:24.522Z,113.47
2022-11-23T04:38:51.609Z,110.90
2022-11-23T04:41:18.716Z,105.83
2022-11-23T04:43:45.995Z,105.87
2022-11-23T04:46:13.090Z,97.40
2022-11-23T04:48:40.163Z,94.23
2022-11-23T04:51:07.320Z,98.57
2022-11-23T04:53:34.431Z,103.03
2022-11-23T04:56:01.579Z,108.17
2022-11-23T04:58:30.274Z,114.50
2022-11-23T05:01:01.457Z,113.10
2022-11-23T05:03:28.672Z,116.00
2022-11-23T05:05:58.520Z,111.27
2022-11-23T05:08:25.601Z,110.33
2022-11-23T05:10:52.789Z,107.40
2022-11-23T05:13:19.954Z,122.90
2022-11-23T05:15:47.025Z,110.77
2022-11-23T05:18:14.165Z,117.70
2022-11-23T05:20:41.324Z,126.07
2022-11-23T05:23:08.443Z,127.40
2022-11-23T05:25:35.553Z,125.20
2022-11-23T05:28:11.425Z,110.40
2022-11-23T05:30:44.045Z,115.43
2022-11-23T05:33:11.167Z,114.20
2022-11-23T05:35:38.323Z,113.40
2022-11-23T05:38:05.478Z,122.00
2022-11-23T05:40:32.601Z,123.63
2022-11-23T05:42:59.894Z,129.70
2022-11-23T05:45:27.134Z,119.60
2022-11-23T05:47:54.865Z,122.13
2022-11-23T05:50:22.277Z,128.37
2022-11-23T05:52:49.373Z,130.07
2022-11-23T05:55:16.513Z,149.73
2022-11-23T05:57:43.591Z,142.07
2022-11-23T06:00:11.044Z,136.23
2022-11-23T06:02:41.190Z,153.80
2022-11-23T06:05:09.043Z,158.90
2022-11-23T06:07:36.196Z,162.77
2022-11-23T06:10:03.413Z,197.00
2022-11-23T06:12:30.556Z,189.47
2022-11-23T06:14:57.680Z,163.10
2022-11-23T06:17:24.880Z,156.10
2022-11-23T06:19:51.961Z,154.40
2022-11-23T06:22:19.067Z,157.73
2022-11-23T06:24:46.161Z,161.47
2022-11-23T06:27:18.267Z,167.03
2022-11-23T06:29:46.968Z,172.97
2022-11-23T06:32:14.125Z,180.47
2022-11-23T06:34:41.216Z,180.83
2022-11-23T06:37:08.327Z,198.50
2022-11-23T06:39:35.796Z,146.77
2022-11-23T06:42:30.841Z,142.63
2022-11-23T06:44:50.232Z,137.30
2022-11-23T06:47:19.839Z,144.67
2022-11-23T06:49:49.066Z,141.17
2022-11-23T06:52:16.237Z,144.27
2022-11-23T06:54:43.339Z,154.80
2022-11-23T06:57:10.414Z,161.93
2022-11-23T06:59:40.659Z,145.37
2022-11-23T07:02:11.473Z,140.67
2022-11-23T07:04:38.597Z,144.50
2022-11-23T07:07:05.731Z,145.73
2022-11-23T07:09:33.064Z,158.47
2022-11-23T07:12:00.388Z,153.83
2022-11-23T07:14:27.472Z,162.97
2022-11-23T07:16:54.567Z,177.33
2022-11-23T07:19:21.689Z,168.97
2022-11-23T07:21:48.766Z,173.00
2022-11-23T07:24:15.866Z,157.87
2022-11-23T07:26:43.031Z,176.17
2022-11-23T07:29:10.650Z,169.73
2022-11-23T07:31:37.765Z,165.63
2022-11-23T07:34:05.241Z,145.63
2022-11-23T07:36:32.341Z,143.80
2022-11-23T07:38:59.475Z,148.77
2022-11-23T07:41:27.591Z,102.27
2022-11-23T07:43:54.868Z,102.27
2022-11-23T07:46:22.198Z,100.33
2022-11-23T07:48:49.373Z,110.83
2022-11-23T07:51:16.829Z,127.57
2022-11-23T07:53:43.933Z,150.93
2022-11-23T07:56:11.042Z,125.77
2022-11-23T07:58:38.144Z,120.40
2022-11-23T08:01:05.249Z,115.60
2022-11-23T08:03:32.490Z,126.17
2022-11-23T08:05:59.652Z,125.77
2022-11-23T08:08:26.791Z,117.43
2022-11-23T08:10:54.737Z,121.83
2022-11-23T08:13:22.278Z,101.80
2022-11-23T08:15:54.858Z,121.53
2022-11-23T08:18:23.097Z,132.70
2022-11-23T08:20:50.165Z,132.20
2022-11-23T08:23:17.248Z,122.80
2022-11-23T08:25:44.379Z,142.57
2022-11-23T08:28:11.815Z,128.90
2022-11-23T08:30:39.074Z,121.37
2022-11-23T08:33:06.715Z,85.33
2022-11-23T08:35:34.666Z,84.00
2022-11-23T08:38:01.752Z,78.43
2022-11-23T08:40:28.861Z,69.87
2022-11-23T08:42:56.029Z,61.47
2022-11-23T08:45:23.143Z,57.37
2022-11-23T08:47:51.083Z,62.67
2022-11-23T08:50:18.358Z,59.97
2022-11-23T08:52:45.476Z,61.17
2022-11-23T08:55:12.700Z,53.77
2022-11-23T08:57:39.811Z,54.17
2022-11-23T09:00:07.230Z,83.07
2022-11-23T09:02:34.369Z,54.60
2022-11-23T09:05:01.459Z,59.77
2022-11-23T09:07:28.625Z,54.13
2022-11-23T09:09:55.860Z,56.60
2022-11-23T09:12:22.962Z,52.47
2022-11-23T09:14:50.033Z,53.57
2022-11-23T09:17:17.189Z,54.40
2022-11-23T09:19:44.287Z,47.10
2022-11-23T09:22:11.366Z,52.13
2022-11-23T09:24:38.561Z,49.37
2022-11-23T09:27:05.680Z,53.90
2022-11-23T09:29:32.767Z,47.43
2022-11-23T09:31:59.875Z,62.60
2022-11-23T09:34:26.952Z,59.20
2022-11-23T09:36:54.034Z,64.23
2022-11-23T09:39:21.229Z,66.53
2022-11-23T09:41:51.100Z,70.67
2022-11-23T09:44:18.194Z,57.27
2022-11-23T09:46:48.422Z,49.83
2022-11-23T09:49:19.477Z,43.33
2022-11-23T09:51:46.963Z,46.77
2022-11-23T09:54:31.316Z,42.93
2022-11-23T09:57:01.957Z,41.43
2022-11-23T09:59:32.572Z,45.50
2022-11-23T10:01:59.684Z,47.30
2022-11-23T10:04:26.823Z,47.20
2022-11-23T10:07:04.706Z,56.80
2022-11-23T10:09:41.664Z,46.50
2022-11-23T10:12:11.890Z,47.23
2022-11-23T10:14:57.412Z,50.83
2022-11-23T10:17:24.580Z,49.97
2022-11-23T10:19:54.583Z,62.40
2022-11-23T10:22:22.480Z,66.73
2022-11-23T10:24:50.974Z,61.23
2022-11-23T10:27:18.793Z,102.30
2022-11-23T10:29:45.903Z,80.93
2022-11-23T10:32:32.136Z,61.17
2022-11-23T10:35:02.287Z,83.40
2022-11-23T10:37:29.405Z,63.40
2022-11-23T10:39:56.548Z,78.47
2022-11-23T10:42:29.723Z,139.50
2022-11-23T10:44:56.858Z,83.27
2022-11-23T10:47:34.068Z,68.57
2022-11-23T10:50:01.220Z,64.43
2022-11-23T10:52:31.849Z,62.57
2022-11-23T10:54:59.453Z,59.80
2022-11-23T10:57:33.609Z,53.40
2022-11-23T11:00:09.971Z,54.27
2022-11-23T11:03:06.281Z,59.63
2022-11-23T11:06:07.396Z,53.37
2022-11-23T11:08:28.673Z,54.13
2022-11-23T11:11:00.062Z,39.20
2022-11-23T11:13:53.330Z,49.87
2022-11-23T11:16:26.343Z,49.80
2022-11-23T11:18:53.590Z,47.50
2022-11-23T11:21:20.730Z,48.73
2022-11-23T11:23:54.804Z,56.83
2022-11-23T11:26:23.570Z,56.23
2022-11-23T11:28:51.470Z,53.63
2022-11-23T11:31:38.910Z,49.23
2022-11-23T11:34:15.603Z,54.43
2022-11-23T11:36:56.914Z,48.87
2022-11-23T11:39:30.462Z,48.73
2022-11-23T11:41:57.922Z,56.03
2022-11-23T11:44:25.345Z,53.60
2022-11-23T11:46:55.301Z,51.97
2022-11-23T11:49:24.101Z,48.40
2022-11-23T11:52:03.530Z,47.13
2022-11-23T11:54:39.542Z,53.23
2022-11-23T11:57:07.924Z,51.10
2022-11-23T11:59:43.060Z,51.43
2022-11-23T12:02:10.651Z,45.40
2022-11-23T12:04:42.079Z,67.47
2022-11-23T12:07:11.442Z,53.57
2022-11-23T12:09:39.921Z,65.03
2022-11-23T12:12:08.948Z,58.73
2022-11-23T12:14:36.774Z,52.70
2022-11-23T12:17:32.399Z,57.13
2022-11-23T12:20:04.791Z,54.87
2022-11-23T12:22:41.228Z,62.97
2022-11-23T12:25:27.037Z,54.73
2022-11-23T12:28:03.864Z,62.70
2022-11-23T12:30:31.053Z,51.53
2022-11-23T12:33:07.147Z,47.67
2022-11-23T12:35:40.559Z,51.80
2022-11-23T12:38:24.012Z,54.17
2022-11-23T12:40:59.716Z,72.93
2022-11-23T12:43:36.448Z,45.70
2022-11-23T12:46:24.925Z,50.93
2022-11-23T12:48:58.204Z,50.40
2022-11-23T12:51:41.242Z,50.40
2022-11-23T12:54:08.414Z,55.67
2022-11-23T12:56:48.099Z,58.33
2022-11-23T12:59:15.530Z,56.30
2022-11-23T13:01:44.018Z,47.13
2022-11-23T13:04:32.549Z,56.20
2022-11-23T13:07:27.610Z,57.20
2022-11-23T13:10:09.030Z,45.43
2022-11-23T13:12:50.919Z,47.83
2022-11-23T13:15:33.129Z,53.87
2022-11-23T13:18:19.538Z,52.93
2022-11-23T13:21:05.241Z,56.90
2022-11-23T13:23:38.254Z,57.80
2022-11-23T13:26:15.659Z,75.70
2022-11-23T13:28:43.364Z,74.33
2022-11-23T13:31:19.457Z,81.60
2022-11-23T13:33:47.431Z,75.20
2022-11-23T13:37:11.620Z,91.10
2022-11-23T13:39:40.656Z,97.00
2022-11-23T13:42:09.348Z,82.97
2022-11-23T13:44:36.604Z,101.50
2022-11-23T13:47:04.986Z,97.33
2022-11-23T13:49:32.165Z,95.57
2022-11-23T13:52:21.609Z,79.20
2022-11-23T13:54:57.876Z,63.97
2022-11-23T13:57:24.992Z,66.97
2022-11-23T13:59:52.063Z,81.03
2022-11-23T14:02:26.947Z,77.87
2022-11-23T14:04:54.204Z,91.33
2022-11-23T14:07:25.492Z,77.47
2022-11-23T14:09:53.867Z,75.97
2022-11-23T14:12:33.187Z,150.80
2022-11-23T14:15:12.361Z,127.50
2022-11-23T14:17:48.391Z,100.30
2022-11-23T14:20:25.966Z,91.33
2022-11-23T14:23:00.992Z,97.60
2022-11-23T14:25:40.372Z,82.90
2022-11-23T14:28:19.071Z,91.43
2022-11-23T14:31:08.129Z,86.23
2022-11-23T14:33:43.564Z,117.27
2022-11-23T14:36:17.327Z,111.27
2022-11-23T14:38:55.773Z,117.30
2022-11-23T14:41:23.057Z,108.07
2022-11-23T14:43:50.150Z,87.13
2022-11-23T14:46:19.810Z,76.43
2022-11-23T14:48:47.630Z,74.73
2022-11-23T14:51:14.754Z,106.37
2022-11-23T14:53:46.674Z,123.53
2022-11-23T14:56:20.161Z,153.47
2022-11-23T14:58:47.273Z,152.97
2022-11-23T15:01:15.310Z,152.77
2022-11-23T15:03:50.549Z,125.07
2022-11-23T15:06:18.121Z,122.37
2022-11-23T15:08:50.487Z,133.43
2022-11-23T15:11:18.064Z,100.13
2022-11-23T15:13:46.332Z,142.07
2022-11-23T15:16:14.152Z,123.87
2022-11-23T15:18:41.331Z,144.23
2022-11-23T15:21:11.235Z,131.90
2022-11-23T15:23:57.358Z,176.57
2022-11-23T15:26:47.600Z,191.50
2022-11-23T15:29:47.926Z,175.97
2022-11-23T15:32:30.740Z,190.07
2022-11-23T15:35:08.493Z,174.97
2022-11-23T15:37:42.152Z,165.90
2022-11-23T15:40:12.462Z,157.07
2022-11-23T15:42:39.561Z,145.93
2022-11-23T15:45:06.907Z,173.60
2022-11-23T15:47:34.291Z,134.30
2022-11-23T15:50:04.843Z,152.33
2022-11-23T15:52:34.575Z,121.97
2022-11-23T15:55:09.994Z,108.30
2022-11-23T15:57:37.581Z,113.80
2022-11-23T16:00:05.120Z,104.53
2022-11-23T16:02:32.321Z,88.97
2022-11-23T16:05:05.548Z,105.97
2022-11-23T16:07:32.788Z,82.20
2022-11-23T16:10:32.242Z,87.80
2022-11-23T16:12:59.929Z,92.70
2022-11-23T16:15:37.774Z,92.00
2022-11-23T16:18:05.484Z,100.27
2022-11-23T16:20:32.645Z,82.40
2022-11-23T16:23:02.915Z,107.80
2022-11-23T16:25:30.159Z,102.17
2022-11-23T16:28:00.511Z,89.53
2022-11-23T16:30:28.579Z,74.70
2022-11-23T16:32:55.781Z,98.67
2022-11-23T16:35:22.898Z,77.43
2022-11-23T16:37:50.083Z,131.57
2022-11-23T16:40:17.242Z,94.87
2022-11-23T16:42:44.619Z,87.30
2022-11-23T16:45:11.983Z,85.47
2022-11-23T16:47:51.222Z,157.70
2022-11-23T16:50:18.311Z,130.47
2022-11-23T16:52:45.376Z,140.03
2022-11-23T16:55:12.470Z,129.73
2022-11-23T16:57:39.626Z,94.67
2022-11-23T17:00:07.887Z,93.50
2022-11-23T17:02:35.032Z,70.63
2022-11-23T17:05:02.793Z,76.67
2022-11-23T17:07:29.991Z,98.77
2022-11-23T17:09:59.072Z,75.93
2022-11-23T17:12:26.186Z,76.60
2022-11-23T17:14:53.355Z,224.77
2022-11-23T17:17:21.324Z,110.50
2022-11-23T17:19:51.345Z,111.90
2022-11-23T17:22:18.885Z,82.40
2022-11-23T17:24:46.322Z,86.67
2022-11-23T17:27:17.114Z,81.80
2022-11-23T17:29:44.746Z,82.90
2022-11-23T17:32:12.312Z,85.00
2022-11-23T17:34:39.567Z,74.07
2022-11-23T17:37:06.795Z,79.47
2022-11-23T17:39:34.055Z,98.93
2022-11-23T17:42:04.856Z,89.43
2022-11-23T17:44:32.466Z,90.00
2022-11-23T17:46:59.573Z,72.57
2022-11-23T17:49:28.341Z,75.33
2022-11-23T17:51:55.852Z,83.67
2022-11-23T17:54:23.371Z,72.53
2022-11-23T17:56:51.480Z,88.97
2022-11-23T17:59:19.029Z,114.07
2022-11-23T18:01:46.348Z,90.17
2022-11-23T18:04:13.571Z,88.17
2022-11-23T18:06:40.691Z,86.43
2022-11-23T18:09:07.791Z,128.63
2022-11-23T18:11:34.941Z,114.87
2022-11-23T18:14:03.259Z,133.80
2022-11-23T18:16:30.396Z,106.90
2022-11-23T18:18:57.601Z,116.53
2022-11-23T18:21:24.718Z,113.47
2022-11-23T18:23:51.831Z,130.33
2022-11-23T18:26:20.189Z,96.20
2022-11-23T18:28:47.422Z,85.07
2022-11-23T18:31:14.649Z,88.80
2022-11-23T18:33:41.949Z,93.50
2022-11-23T18:36:10.544Z,91.30
2022-11-23T18:38:38.139Z,91.23
2022-11-23T18:41:05.402Z,104.70
2022-11-23T18:43:32.508Z,111.57
2022-11-23T18:45:59.843Z,89.50
2022-11-23T18:48:27.345Z,78.50
2022-11-23T18:50:54.464Z,74.87
2022-11-23T18:53:21.599Z,81.53
2022-11-23T18:55:48.767Z,84.03
2022-11-23T18:58:15.999Z,87.30
2022-11-23T19:00:43.120Z,99.37
2022-11-23T19:03:10.326Z,107.80
2022-11-23T19:05:37.452Z,112.67
2022-11-23T19:08:05.515Z,123.20
2022-11-23T19:10:33.225Z,107.93
2022-11-23T19:13:05.053Z,132.33
2022-11-23T19:15:33.070Z,151.27
2022-11-23T19:18:00.466Z,199.40
2022-11-23T19:20:28.383Z,207.13
2022-11-23T19:22:55.951Z,165.77
2022-11-23T19:25:23.099Z,134.20
2022-11-23T19:27:51.370Z,114.63
2022-11-23T19:30:18.677Z,128.83
2022-11-23T19:32:45.835Z,131.37
2022-11-23T19:35:12.962Z,177.13
2022-11-23T19:37:40.115Z,170.07
2022-11-23T19:40:07.635Z,159.33
2022-11-23T19:42:35.850Z,131.33
2022-11-23T19:45:03.315Z,136.63
2022-11-23T19:47:31.565Z,162.80
2022-11-23T19:49:59.206Z,122.60
2022-11-23T19:52:41.722Z,115.10
2022-11-23T19:55:13.758Z,102.50
2022-11-23T19:57:40.886Z,101.70
2022-11-23T20:00:09.357Z,107.70
2022-11-23T20:02:36.492Z,113.63
2022-11-23T20:05:03.708Z,111.53
2022-11-23T20:07:31.810Z,110.87
2022-11-23T20:09:58.974Z,99.73
2022-11-23T20:12:26.054Z,180.67
2022-11-23T20:14:53.151Z,188.43
2022-11-23T20:17:20.301Z,111.67
2022-11-23T20:19:47.433Z,119.97
2022-11-23T20:22:14.558Z,114.53
2022-11-23T20:24:41.732Z,143.17
2022-11-23T20:27:08.890Z,116.87
2022-11-23T20:29:36.198Z,104.03
2022-11-23T20:32:03.455Z,119.80
2022-11-23T20:34:30.613Z,123.07
2022-11-23T20:36:57.730Z,190.93
2022-11-23T20:39:24.931Z,148.13
2022-11-23T20:41:52.019Z,309.37
2022-11-23T20:44:19.138Z,228.00
2022-11-23T20:47:02.988Z,334.60
2022-11-23T20:49:31.084Z,165.73
2022-11-23T20:51:58.624Z,125.50
2022-11-23T20:54:25.725Z,304.97
2022-11-23T20:56:52.824Z,318.93
2022-11-23T20:59:20.323Z,197.80
2022-11-23T21:01:47.444Z,157.30
2022-11-23T21:04:14.585Z,191.33
2022-11-23T21:06:41.778Z,232.20
2022-11-23T21:09:09.713Z,180.53
2022-11-23T21:11:55.951Z,177.70
2022-11-23T21:14:24.672Z,147.63
2022-11-23T21:16:56.190Z,107.20
2022-11-23T21:19:33.325Z,102.37
2022-11-23T21:22:03.498Z,97.00
2022-11-23T21:24:30.721Z,79.27
2022-11-23T21:26:57.911Z,119.43
2022-11-23T21:29:26.054Z,122.17
2022-11-23T21:31:53.393Z,114.57
2022-11-23T21:34:21.189Z,114.97
2022-11-23T21:36:48.584Z,111.67
2022-11-23T21:39:15.811Z,108.10
2022-11-23T21:41:43.031Z,136.43
2022-11-23T21:44:10.276Z,123.47
2022-11-23T21:46:37.787Z,127.10
2022-11-23T21:49:06.404Z,95.10
2022-11-23T21:51:33.722Z,210.87
2022-11-23T21:54:01.508Z,159.73
2022-11-23T21:56:29.140Z,123.10
2022-11-23T21:58:56.564Z,92.03
2022-11-23T22:04:19.142Z,85.87
2022-11-23T22:06:46.431Z,77.33
2022-11-23T22:09:13.703Z,80.13
2022-11-23T22:11:43.192Z,81.97
2022-11-23T22:14:11.955Z,86.17
2022-11-23T22:16:43.442Z,75.57
2022-11-23T22:19:11.240Z,82.53
2022-11-23T22:21:39.010Z,86.60
2022-11-23T22:24:06.566Z,79.93
2022-11-23T22:26:33.858Z,87.07
2022-11-23T22:29:02.600Z,87.37
2022-11-23T22:31:34.101Z,106.63
2022-11-23T22:34:05.680Z,124.13
2022-11-23T22:36:32.883Z,126.17
2022-11-23T22:39:02.197Z,119.77
2022-11-23T22:41:29.863Z,112.03
2022-11-23T22:43:57.287Z,113.50
2022-11-23T22:46:25.311Z,115.00
2022-11-23T22:48:52.926Z,108.70
2022-11-23T22:51:20.860Z,98.83
2022-11-23T22:53:48.183Z,95.33
2022-11-23T22:56:19.527Z,84.03
2022-11-23T22:58:47.367Z,101.17
2022-11-23T23:01:15.317Z,99.93
2022-11-23T23:03:42.641Z,97.77
2022-11-23T23:06:19.699Z,90.03
2022-11-23T23:08:47.086Z,90.43
2022-11-23T23:11:14.584Z,90.27
2022-11-23T23:13:42.253Z,97.13
2022-11-23T23:16:11.866Z,91.73
2022-11-23T23:18:39.226Z,100.33
2022-11-23T23:21:10.926Z,100.70
2022-11-23T23:23:38.748Z,92.33
2022-11-23T23:26:06.277Z,99.63
2022-11-23T23:28:33.621Z,89.23
2022-11-23T23:31:04.173Z,96.73
2022-11-23T23:33:33.286Z,101.20
2022-11-23T23:36:04.526Z,91.33
2022-11-23T23:38:31.976Z,99.20
2022-11-23T23:40:59.230Z,102.63
2022-11-23T23:43:26.513Z,103.33
2022-11-23T23:45:54.092Z,96.30
2022-11-23T23:48:21.278Z,93.83
2022-11-23T23:50:48.469Z,88.53
2022-11-23T23:53:15.631Z,97.07
2022-11-23T23:55:42.796Z,93.83
2022-11-23T23:58:09.977Z,94.80
